BAW9UP YMML-YSSY
Flight info
| Callsign | BAW9UP |
|---|---|
| Flight time | 1h 1m |
| Altitude | 35000 |
| Route | ML H129 DOSEL Y59 TESAT |
| Aircraft | B77W/H-VGDW/C |
Departure
| Time | 2026-05-04 10:40 |
|---|---|
| Airport | Melbourne Airport (YMML) |
Arrival
| Time | 2026-05-04 11:41 |
|---|---|
| Airport | Sydney Kingsford Smith International Airport (YSSY) |
| Time | Latitude | Longitude | Altitude | Speed | Heading |
|---|---|---|---|---|---|
| 2026-05-04 10:08 | -37.66944 | 144.84342 | 398 ft | 0 kts | 76° |
| 2026-05-04 10:29 | -37.66945 | 144.84338 | 395 ft | 1 kts | 75° |
| 2026-05-04 10:30 | -37.66947 | 144.84327 | 396 ft | 2 kts | 75° |
| 2026-05-04 10:30 | -37.66950 | 144.84312 | 395 ft | 2 kts | 75° |
| 2026-05-04 10:30 | -37.66954 | 144.84294 | 396 ft | 3 kts | 75° |
| 2026-05-04 10:30 | -37.66958 | 144.84277 | 398 ft | 2 kts | 75° |
| 2026-05-04 10:31 | -37.66960 | 144.84260 | 398 ft | 2 kts | 90° |
| 2026-05-04 10:31 | -37.66958 | 144.84243 | 399 ft | 2 kts | 116° |
| 2026-05-04 10:32 | -37.66944 | 144.84225 | 392 ft | 0 kts | 172° |
| 2026-05-04 10:33 | -37.66949 | 144.84226 | 390 ft | 2 kts | 172° |
| 2026-05-04 10:33 | -37.66979 | 144.84231 | 396 ft | 7 kts | 172° |
| 2026-05-04 10:33 | -37.67045 | 144.84243 | 393 ft | 12 kts | 172° |
| 2026-05-04 10:33 | -37.67140 | 144.84259 | 393 ft | 15 kts | 172° |
| 2026-05-04 10:34 | -37.67257 | 144.84280 | 388 ft | 19 kts | 172° |
| 2026-05-04 10:34 | -37.67373 | 144.84302 | 380 ft | 8 kts | 171° |
| 2026-05-04 10:34 | -37.67446 | 144.84316 | 378 ft | 13 kts | 171° |
| 2026-05-04 10:34 | -37.67546 | 144.84335 | 378 ft | 16 kts | 171° |
| 2026-05-04 10:35 | -37.67669 | 144.84358 | 368 ft | 20 kts | 171° |
| 2026-05-04 10:35 | -37.67795 | 144.84382 | 366 ft | 14 kts | 172° |
| 2026-05-04 10:35 | -37.67849 | 144.84321 | 364 ft | 10 kts | 257° |
| 2026-05-04 10:35 | -37.67853 | 144.84289 | 362 ft | 0 kts | 261° |
| 2026-05-04 10:36 | -37.67854 | 144.84288 | 362 ft | 1 kts | 261° |
| 2026-05-04 10:36 | -37.67856 | 144.84272 | 362 ft | 3 kts | 261° |
| 2026-05-04 10:36 | -37.67860 | 144.84241 | 358 ft | 5 kts | 261° |
| 2026-05-04 10:37 | -37.67865 | 144.84197 | 360 ft | 5 kts | 261° |
| 2026-05-04 10:37 | -37.67871 | 144.84147 | 364 ft | 6 kts | 261° |
| 2026-05-04 10:37 | -37.67878 | 144.84090 | 357 ft | 7 kts | 261° |
| 2026-05-04 10:37 | -37.67885 | 144.84025 | 362 ft | 8 kts | 265° |
| 2026-05-04 10:39 | -37.67415 | 144.83882 | 378 ft | 97 kts | 351° |
| 2026-05-04 10:39 | -37.66510 | 144.83719 | 413 ft | 164 kts | 353° |
| 2026-05-04 10:39 | -37.65249 | 144.83517 | 643 ft | 195 kts | 353° |
| 2026-05-04 10:40 | -37.63901 | 144.83275 | 1643 ft | 186 kts | 348° |
| 2026-05-04 10:40 | -37.62738 | 144.83038 | 3011 ft | 163 kts | 343° |
| 2026-05-04 10:40 | -37.61552 | 144.82784 | 3466 ft | 188 kts | 343° |
| 2026-05-04 10:40 | -37.60155 | 144.82484 | 3735 ft | 218 kts | 345° |
| 2026-05-04 10:41 | -37.58533 | 144.82652 | 4037 ft | 254 kts | 13° |
| 2026-05-04 10:41 | -37.56887 | 144.83611 | 4768 ft | 266 kts | 19° |
| 2026-05-04 10:41 | -37.55203 | 144.84644 | 4969 ft | 273 kts | 19° |
| 2026-05-04 10:41 | -37.53521 | 144.85673 | 4970 ft | 270 kts | 19° |
| 2026-05-04 10:42 | -37.51838 | 144.86705 | 4955 ft | 267 kts | 19° |
| 2026-05-04 10:42 | -37.50196 | 144.87706 | 4982 ft | 259 kts | 19° |
| 2026-05-04 10:42 | -37.48580 | 144.88689 | 5239 ft | 257 kts | 19° |
| 2026-05-04 10:42 | -37.46955 | 144.89670 | 6132 ft | 260 kts | 19° |
| 2026-05-04 10:43 | -37.45309 | 144.90669 | 6990 ft | 266 kts | 20° |
| 2026-05-04 10:44 | -37.36519 | 145.04270 | 12988 ft | 304 kts | 50° |
| 2026-05-04 10:45 | -37.35304 | 145.06428 | 13952 ft | 309 kts | 50° |
| 2026-05-04 10:45 | -37.34049 | 145.08649 | 14866 ft | 314 kts | 50° |
| 2026-05-04 10:45 | -37.32778 | 145.10896 | 15797 ft | 317 kts | 50° |
| 2026-05-04 10:45 | -37.31491 | 145.13171 | 16746 ft | 321 kts | 50° |
| 2026-05-04 10:46 | -37.30184 | 145.15474 | 17728 ft | 326 kts | 50° |
| 2026-05-04 10:46 | -37.28862 | 145.17801 | 18637 ft | 330 kts | 50° |
| 2026-05-04 10:46 | -37.27519 | 145.20162 | 19463 ft | 336 kts | 50° |
| 2026-05-04 10:46 | -37.26113 | 145.22625 | 19817 ft | 360 kts | 50° |
| 2026-05-04 10:47 | -37.24596 | 145.25280 | 20013 ft | 387 kts | 50° |
| 2026-05-04 10:47 | -37.22977 | 145.28118 | 20290 ft | 410 kts | 50° |
| 2026-05-04 10:47 | -37.21299 | 145.31072 | 20928 ft | 421 kts | 51° |
| 2026-05-04 10:47 | -37.19586 | 145.34086 | 21728 ft | 428 kts | 50° |
| 2026-05-04 10:49 | -37.07013 | 145.56015 | 26788 ft | 460 kts | 47° |
| 2026-05-04 10:49 | -37.05132 | 145.59283 | 27424 ft | 465 kts | 46° |
| 2026-05-04 10:50 | -37.03229 | 145.62584 | 28040 ft | 470 kts | 46° |
| 2026-05-04 10:51 | -36.89479 | 145.86393 | 32157 ft | 485 kts | 45° |
| 2026-05-04 10:52 | -36.87519 | 145.89768 | 32596 ft | 488 kts | 45° |
| 2026-05-04 10:52 | -36.85525 | 145.93196 | 33095 ft | 489 kts | 45° |
| 2026-05-04 10:52 | -36.83524 | 145.96634 | 33676 ft | 489 kts | 45° |
| 2026-05-04 10:54 | -36.69537 | 146.20596 | 35038 ft | 488 kts | 45° |
| 2026-05-04 10:54 | -36.67536 | 146.24007 | 35046 ft | 488 kts | 45° |
| 2026-05-04 10:56 | -36.51518 | 146.51203 | 35049 ft | 489 kts | 45° |
| 2026-05-04 10:57 | -36.47488 | 146.58012 | 35035 ft | 489 kts | 45° |
| 2026-05-04 10:57 | -36.43451 | 146.64819 | 35052 ft | 490 kts | 45° |
| 2026-05-04 10:58 | -36.39395 | 146.71643 | 35061 ft | 491 kts | 45° |
| 2026-05-04 10:58 | -36.35330 | 146.78471 | 35037 ft | 493 kts | 45° |
| 2026-05-04 10:59 | -36.31281 | 146.85258 | 35044 ft | 493 kts | 45° |
| 2026-05-04 10:59 | -36.27210 | 146.92070 | 35067 ft | 492 kts | 45° |
| 2026-05-04 11:00 | -36.23134 | 146.98877 | 35053 ft | 492 kts | 45° |
| 2026-05-04 11:02 | -36.06929 | 147.25806 | 35050 ft | 486 kts | 44° |
| 2026-05-04 11:05 | -35.76580 | 147.75691 | 35099 ft | 485 kts | 44° |
| 2026-05-04 11:06 | -35.72507 | 147.82327 | 35103 ft | 486 kts | 44° |
| 2026-05-04 11:06 | -35.69119 | 147.87840 | 35105 ft | 486 kts | 44° |
| 2026-05-04 11:10 | -35.40499 | 148.34068 | 35113 ft | 486 kts | 43° |
| 2026-05-04 11:12 | -35.24047 | 148.60314 | 35114 ft | 486 kts | 43° |
| 2026-05-04 11:12 | -35.19921 | 148.66865 | 35102 ft | 486 kts | 43° |
| 2026-05-04 11:13 | -35.15793 | 148.73410 | 35122 ft | 486 kts | 43° |
| 2026-05-04 11:13 | -35.11663 | 148.79944 | 35102 ft | 486 kts | 43° |
| 2026-05-04 11:14 | -35.07558 | 148.86429 | 35117 ft | 486 kts | 43° |
| 2026-05-04 11:16 | -34.91624 | 149.11504 | 33228 ft | 448 kts | 42° |
| 2026-05-04 11:16 | -34.89719 | 149.14485 | 32757 ft | 444 kts | 42° |
| 2026-05-04 11:16 | -34.87827 | 149.17443 | 32319 ft | 441 kts | 42° |
| 2026-05-04 11:17 | -34.85949 | 149.20378 | 31916 ft | 437 kts | 42° |
| 2026-05-04 11:17 | -34.84089 | 149.23284 | 31524 ft | 433 kts | 42° |
| 2026-05-04 11:19 | -34.72000 | 149.43382 | 28543 ft | 421 kts | 52° |
| 2026-05-04 11:19 | -34.70647 | 149.46531 | 28108 ft | 418 kts | 53° |
| 2026-05-04 11:19 | -34.69312 | 149.49657 | 27676 ft | 415 kts | 53° |
| 2026-05-04 11:19 | -34.68004 | 149.52708 | 27270 ft | 412 kts | 53° |
| 2026-05-04 11:20 | -34.66679 | 149.55776 | 26857 ft | 408 kts | 52° |
| 2026-05-04 11:20 | -34.65357 | 149.58816 | 26439 ft | 405 kts | 52° |
| 2026-05-04 11:20 | -34.64042 | 149.61830 | 26025 ft | 402 kts | 52° |
| 2026-05-04 11:20 | -34.62737 | 149.64811 | 25666 ft | 398 kts | 52° |
| 2026-05-04 11:22 | -34.53788 | 149.85168 | 22832 ft | 381 kts | 52° |
| 2026-05-04 11:22 | -34.52544 | 149.87992 | 22438 ft | 379 kts | 52° |
| 2026-05-04 11:23 | -34.51307 | 149.90796 | 22050 ft | 375 kts | 53° |
| 2026-05-04 11:23 | -34.50097 | 149.93537 | 21697 ft | 372 kts | 53° |
| 2026-05-04 11:24 | -34.42916 | 150.09756 | 19414 ft | 355 kts | 54° |
| 2026-05-04 11:25 | -34.41750 | 150.12379 | 19056 ft | 353 kts | 53° |
| 2026-05-04 11:25 | -34.40585 | 150.14993 | 18638 ft | 353 kts | 53° |
| 2026-05-04 11:25 | -34.39423 | 150.17605 | 18214 ft | 351 kts | 54° |
| 2026-05-04 11:26 | -34.37137 | 150.22748 | 17505 ft | 344 kts | 54° |
| 2026-05-04 11:27 | -34.29309 | 150.40269 | 14829 ft | 333 kts | 54° |
| 2026-05-04 11:28 | -34.28216 | 150.42718 | 14522 ft | 330 kts | 54° |
| 2026-05-04 11:28 | -34.27136 | 150.45134 | 14288 ft | 320 kts | 54° |
| 2026-05-04 11:28 | -34.26123 | 150.47418 | 14026 ft | 305 kts | 54° |
| 2026-05-04 11:28 | -34.25138 | 150.49629 | 13610 ft | 295 kts | 54° |
| 2026-05-04 11:29 | -34.24165 | 150.51797 | 13003 ft | 291 kts | 54° |
| 2026-05-04 11:29 | -34.23202 | 150.53940 | 12303 ft | 290 kts | 54° |
| 2026-05-04 11:29 | -34.22239 | 150.56079 | 11601 ft | 289 kts | 54° |
| 2026-05-04 11:29 | -34.21290 | 150.58197 | 10906 ft | 285 kts | 55° |
| 2026-05-04 11:31 | -34.16954 | 150.73363 | 7633 ft | 294 kts | 92° |
| 2026-05-04 11:33 | -34.18157 | 150.90428 | 6892 ft | 289 kts | 91° |
| 2026-05-04 11:33 | -34.18320 | 150.92843 | 6781 ft | 289 kts | 91° |
| 2026-05-04 11:33 | -34.18484 | 150.95267 | 6663 ft | 289 kts | 91° |
| 2026-05-04 11:34 | -34.18647 | 150.97680 | 6573 ft | 289 kts | 91° |
| 2026-05-04 11:34 | -34.18808 | 151.00065 | 6468 ft | 287 kts | 91° |
| 2026-05-04 11:34 | -34.18970 | 151.02462 | 6198 ft | 288 kts | 91° |
| 2026-05-04 11:34 | -34.19131 | 151.04873 | 5877 ft | 287 kts | 92° |
| 2026-05-04 11:35 | -34.19291 | 151.07261 | 5630 ft | 283 kts | 92° |
| 2026-05-04 11:35 | -34.19448 | 151.09626 | 5355 ft | 282 kts | 92° |
| 2026-05-04 11:35 | -34.19402 | 151.11947 | 4940 ft | 274 kts | 72° |
| 2026-05-04 11:35 | -34.18578 | 151.13946 | 4394 ft | 262 kts | 44° |
| 2026-05-04 11:36 | -34.17262 | 151.15420 | 3886 ft | 255 kts | 35° |
| 2026-05-04 11:36 | -34.15879 | 151.16731 | 3359 ft | 252 kts | 33° |
| 2026-05-04 11:36 | -34.14511 | 151.17990 | 3042 ft | 241 kts | 33° |
| 2026-05-04 11:36 | -34.13219 | 151.19174 | 2783 ft | 228 kts | 33° |
| 2026-05-04 11:37 | -34.11978 | 151.20297 | 2485 ft | 215 kts | 27° |
| 2026-05-04 11:37 | -34.10687 | 151.21029 | 2168 ft | 203 kts | 14° |
| 2026-05-04 11:37 | -34.09375 | 151.21192 | 2030 ft | 177 kts | 350° |
| 2026-05-04 11:37 | -34.08133 | 151.21022 | 2033 ft | 182 kts | 352° |
| 2026-05-04 11:38 | -34.06896 | 151.20829 | 2029 ft | 176 kts | 347° |
| 2026-05-04 11:38 | -34.05701 | 151.20542 | 1858 ft | 173 kts | 346° |
| 2026-05-04 11:38 | -34.04578 | 151.20245 | 1627 ft | 157 kts | 346° |
| 2026-05-04 11:38 | -34.03577 | 151.19979 | 1429 ft | 138 kts | 346° |
| 2026-05-04 11:39 | -34.02705 | 151.19748 | 1261 ft | 119 kts | 346° |
| 2026-05-04 11:39 | -34.01911 | 151.19537 | 1156 ft | 117 kts | 346° |
| 2026-05-04 11:40 | -33.96909 | 151.18208 | 159 ft | 125 kts | 349° |
| 2026-05-04 11:41 | -33.96063 | 151.17973 | 31 ft | 123 kts | 349° |
| 2026-05-04 11:41 | -33.95354 | 151.17785 | 28 ft | 79 kts | 348° |
| 2026-05-04 11:41 | -33.94969 | 151.17688 | 29 ft | 50 kts | 346° |
| 2026-05-04 11:41 | -33.94652 | 151.17601 | 29 ft | 39 kts | 343° |
| 2026-05-04 11:42 | -33.94433 | 151.17462 | 29 ft | 28 kts | 323° |
| 2026-05-04 11:42 | -33.94323 | 151.17336 | 30 ft | 2 kts | 315° |
| 2026-05-04 11:42 | -33.94322 | 151.17335 | 30 ft | 0 kts | 315° |
| 2026-05-04 11:43 | -33.94316 | 151.17328 | 30 ft | 3 kts | 319° |
| 2026-05-04 11:43 | -33.94292 | 151.17312 | 29 ft | 5 kts | 338° |
| 2026-05-04 11:43 | -33.94249 | 151.17294 | 28 ft | 8 kts | 345° |
| 2026-05-04 11:44 | -33.94192 | 151.17277 | 27 ft | 9 kts | 349° |
| 2026-05-04 11:44 | -33.94128 | 151.17264 | 27 ft | 9 kts | 350° |
| 2026-05-04 11:44 | -33.94062 | 151.17250 | 26 ft | 10 kts | 350° |
| 2026-05-04 11:44 | -33.93987 | 151.17228 | 27 ft | 12 kts | 346° |
| 2026-05-04 11:45 | -33.93897 | 151.17203 | 23 ft | 15 kts | 347° |
| 2026-05-04 11:45 | -33.93792 | 151.17176 | 23 ft | 16 kts | 349° |